Terminal Aerodrome Forecast
Issued by NWS

Home | Current Version | Previous Version | Graphics & Text | Print | Product List | Glossary On
Versions: 1 2 3 4 5 6 7 8 9 10 11 12 13
000
FTUS45 KGGW 260500
TAFSDY
TAF
KSDY 260520Z 2606/2706 VRB05KT P6SM FEW070
     FM261000 00000KT 5SM BR SCT010
     FM261500 18006KT P6SM FEW060
      AMD LTD TO CLD VIS AND WIND=

USA.gov is the U.S. government's official web portal to all federal, state and local government web resources and services.